sensor_id;sensor_type;location;lat;lon;timestamp;P1;durP1;ratioP1;P2;durP2;ratioP2
434;SDS011;204;48.942;9.256;2023-05-15T00:02:14;8.67;;;8.17;;
434;SDS011;204;48.942;9.256;2023-05-15T00:04:39;9.40;;;8.90;;
434;SDS011;204;48.942;9.256;2023-05-15T00:07:05;10.60;;;8.90;;
434;SDS011;204;48.942;9.256;2023-05-15T00:09:30;8.80;;;8.30;;
434;SDS011;204;48.942;9.256;2023-05-15T00:11:56;10.23;;;9.30;;
434;SDS011;204;48.942;9.256;2023-05-15T00:14:23;8.70;;;8.20;;
434;SDS011;204;48.942;9.256;2023-05-15T00:16:49;10.85;;;9.10;;
434;SDS011;204;48.942;9.256;2023-05-15T00:19:14;10.63;;;9.10;;
434;SDS011;204;48.942;9.256;2023-05-15T00:21:40;9.05;;;8.55;;
434;SDS011;204;48.942;9.256;2023-05-15T00:24:06;11.00;;;9.47;;
434;SDS011;204;48.942;9.256;2023-05-15T00:26:32;9.30;;;8.80;;
434;SDS011;204;48.942;9.256;2023-05-15T00:28:57;11.40;;;9.93;;
434;SDS011;204;48.942;9.256;2023-05-15T00:31:23;9.90;;;9.40;;
434;SDS011;204;48.942;9.256;2023-05-15T00:33:49;11.70;;;10.50;;
434;SDS011;204;48.942;9.256;2023-05-15T00:36:14;9.80;;;9.30;;
434;SDS011;204;48.942;9.256;2023-05-15T00:38:41;11.50;;;10.90;;
434;SDS011;204;48.942;9.256;2023-05-15T00:41:07;12.20;;;10.43;;
434;SDS011;204;48.942;9.256;2023-05-15T00:43:35;13.88;;;10.18;;
434;SDS011;204;48.942;9.256;2023-05-15T00:46:03;12.93;;;11.05;;
434;SDS011;204;48.942;9.256;2023-05-15T00:48:31;11.20;;;10.30;;
434;SDS011;204;48.942;9.256;2023-05-15T00:50:57;11.35;;;10.75;;
434;SDS011;204;48.942;9.256;2023-05-15T00:53:24;11.80;;;11.20;;
434;SDS011;204;48.942;9.256;2023-05-15T00:55:51;10.73;;;10.13;;
434;SDS011;204;48.942;9.256;2023-05-15T00:58:21;10.88;;;10.27;;
434;SDS011;204;48.942;9.256;2023-05-15T01:00:48;11.18;;;10.57;;
434;SDS011;204;48.942;9.256;2023-05-15T01:03:15;12.35;;;11.75;;
434;SDS011;204;48.942;9.256;2023-05-15T01:05:41;11.55;;;10.95;;
434;SDS011;204;48.942;9.256;2023-05-15T01:10:50;9.82;;;9.20;;
434;SDS011;204;48.942;9.256;2023-05-15T01:13:16;9.68;;;9.18;;
434;SDS011;204;48.942;9.256;2023-05-15T01:15:44;9.25;;;8.75;;
434;SDS011;204;48.942;9.256;2023-05-15T01:18:10;10.37;;;9.17;;
434;SDS011;204;48.942;9.256;2023-05-15T01:20:41;9.90;;;9.43;;
434;SDS011;204;48.942;9.256;2023-05-15T01:28:24;9.37;;;8.87;;
434;SDS011;204;48.942;9.256;2023-05-15T01:30:55;9.55;;;9.05;;
434;SDS011;204;48.942;9.256;2023-05-15T01:33:28;9.55;;;9.05;;
434;SDS011;204;48.942;9.256;2023-05-15T01:36:13;11.68;;;10.27;;
434;SDS011;204;48.942;9.256;2023-05-15T01:38:47;9.55;;;9.05;;
434;SDS011;204;48.942;9.256;2023-05-15T01:41:26;11.45;;;10.82;;
434;SDS011;204;48.942;9.256;2023-05-15T01:46:48;9.93;;;9.45;;
434;SDS011;204;48.942;9.256;2023-05-15T01:49:15;11.50;;;9.95;;
434;SDS011;204;48.942;9.256;2023-05-15T01:51:43;10.23;;;9.73;;
434;SDS011;204;48.942;9.256;2023-05-15T01:54:12;9.23;;;8.73;;
434;SDS011;204;48.942;9.256;2023-05-15T01:56:39;10.60;;;10.00;;
434;SDS011;204;48.942;9.256;2023-05-15T01:59:09;9.60;;;9.10;;
434;SDS011;204;48.942;9.256;2023-05-15T02:01:37;9.52;;;9.02;;
434;SDS011;204;48.942;9.256;2023-05-15T02:04:04;10.13;;;8.93;;
434;SDS011;204;48.942;9.256;2023-05-15T02:06:30;10.88;;;9.52;;
434;SDS011;204;48.942;9.256;2023-05-15T02:08:57;11.25;;;8.70;;
434;SDS011;204;48.942;9.256;2023-05-15T02:11:23;10.60;;;10.00;;
434;SDS011;204;48.942;9.256;2023-05-15T02:13:48;12.97;;;10.00;;
434;SDS011;204;48.942;9.256;2023-05-15T02:16:15;9.68;;;9.18;;
434;SDS011;204;48.942;9.256;2023-05-15T02:18:41;9.00;;;8.50;;
434;SDS011;204;48.942;9.256;2023-05-15T02:21:06;10.60;;;9.90;;
434;SDS011;204;48.942;9.256;2023-05-15T02:23:32;11.03;;;10.43;;
434;SDS011;204;48.942;9.256;2023-05-15T02:28:46;9.70;;;9.20;;
434;SDS011;204;48.942;9.256;2023-05-15T02:31:45;9.43;;;8.93;;
434;SDS011;204;48.942;9.256;2023-05-15T02:36:43;12.07;;;10.27;;
434;SDS011;204;48.942;9.256;2023-05-15T02:39:12;12.02;;;10.68;;
434;SDS011;204;48.942;9.256;2023-05-15T02:41:40;10.95;;;10.35;;
434;SDS011;204;48.942;9.256;2023-05-15T02:44:07;10.68;;;10.07;;
434;SDS011;204;48.942;9.256;2023-05-15T02:46:33;10.32;;;9.82;;
434;SDS011;204;48.942;9.256;2023-05-15T02:48:59;10.00;;;9.45;;
434;SDS011;204;48.942;9.256;2023-05-15T02:51:26;11.80;;;10.70;;
434;SDS011;204;48.942;9.256;2023-05-15T02:53:51;10.33;;;9.83;;
434;SDS011;204;48.942;9.256;2023-05-15T02:56:18;10.77;;;10.10;;
434;SDS011;204;48.942;9.256;2023-05-15T02:58:44;9.80;;;9.30;;
434;SDS011;204;48.942;9.256;2023-05-15T03:01:10;10.73;;;10.07;;
434;SDS011;204;48.942;9.256;2023-05-15T03:03:36;10.05;;;9.55;;
434;SDS011;204;48.942;9.256;2023-05-15T03:06:01;11.07;;;10.47;;
434;SDS011;204;48.942;9.256;2023-05-15T03:08:27;10.80;;;10.20;;
434;SDS011;204;48.942;9.256;2023-05-15T03:10:53;11.53;;;10.93;;
434;SDS011;204;48.942;9.256;2023-05-15T03:13:18;11.10;;;10.50;;
434;SDS011;204;48.942;9.256;2023-05-15T03:15:47;10.57;;;10.00;;
434;SDS011;204;48.942;9.256;2023-05-15T03:18:12;11.20;;;10.60;;
434;SDS011;204;48.942;9.256;2023-05-15T03:20:38;11.53;;;10.93;;
434;SDS011;204;48.942;9.256;2023-05-15T03:23:04;11.80;;;11.20;;
434;SDS011;204;48.942;9.256;2023-05-15T03:25:29;11.17;;;10.57;;
434;SDS011;204;48.942;9.256;2023-05-15T03:27:55;11.60;;;11.03;;
434;SDS011;204;48.942;9.256;2023-05-15T03:30:20;12.43;;;11.83;;
434;SDS011;204;48.942;9.256;2023-05-15T03:32:46;13.17;;;11.83;;
434;SDS011;204;48.942;9.256;2023-05-15T03:35:11;12.37;;;11.77;;
434;SDS011;204;48.942;9.256;2023-05-15T03:37:37;11.80;;;11.20;;
434;SDS011;204;48.942;9.256;2023-05-15T03:40:03;11.93;;;11.33;;
434;SDS011;204;48.942;9.256;2023-05-15T03:42:28;12.03;;;11.43;;
434;SDS011;204;48.942;9.256;2023-05-15T03:44:54;12.30;;;11.70;;
434;SDS011;204;48.942;9.256;2023-05-15T03:47:20;16.60;;;11.60;;
434;SDS011;204;48.942;9.256;2023-05-15T03:49:46;17.43;;;14.00;;
434;SDS011;204;48.942;9.256;2023-05-15T03:52:12;13.07;;;12.37;;
434;SDS011;204;48.942;9.256;2023-05-15T03:54:37;13.27;;;12.57;;
434;SDS011;204;48.942;9.256;2023-05-15T03:57:03;13.50;;;12.27;;
434;SDS011;204;48.942;9.256;2023-05-15T03:59:30;14.00;;;12.85;;
434;SDS011;204;48.942;9.256;2023-05-15T04:01:55;13.50;;;12.80;;
434;SDS011;204;48.942;9.256;2023-05-15T04:04:24;13.88;;;12.30;;
434;SDS011;204;48.942;9.256;2023-05-15T04:06:50;13.60;;;12.37;;
434;SDS011;204;48.942;9.256;2023-05-15T04:09:16;12.03;;;11.43;;
434;SDS011;204;48.942;9.256;2023-05-15T04:11:41;13.60;;;12.90;;
434;SDS011;204;48.942;9.256;2023-05-15T04:14:08;12.02;;;11.43;;
434;SDS011;204;48.942;9.256;2023-05-15T04:16:33;13.80;;;12.83;;
434;SDS011;204;48.942;9.256;2023-05-15T04:18:59;14.65;;;11.98;;
434;SDS011;204;48.942;9.256;2023-05-15T04:21:25;13.20;;;11.47;;
434;SDS011;204;48.942;9.256;2023-05-15T04:23:54;11.50;;;10.87;;
434;SDS011;204;48.942;9.256;2023-05-15T04:26:19;11.43;;;10.82;;
434;SDS011;204;48.942;9.256;2023-05-15T04:28:45;11.03;;;10.43;;
434;SDS011;204;48.942;9.256;2023-05-15T04:31:11;11.20;;;10.10;;
434;SDS011;204;48.942;9.256;2023-05-15T04:33:37;11.80;;;11.20;;
434;SDS011;204;48.942;9.256;2023-05-15T04:36:03;11.48;;;10.82;;
434;SDS011;204;48.942;9.256;2023-05-15T04:38:32;11.23;;;9.88;;
434;SDS011;204;48.942;9.256;2023-05-15T04:40:58;12.63;;;10.10;;
434;SDS011;204;48.942;9.256;2023-05-15T04:43:24;10.37;;;9.87;;
434;SDS011;204;48.942;9.256;2023-05-15T04:45:49;9.50;;;9.00;;
434;SDS011;204;48.942;9.256;2023-05-15T04:48:18;9.43;;;8.93;;
434;SDS011;204;48.942;9.256;2023-05-15T04:50:44;10.07;;;8.55;;
434;SDS011;204;48.942;9.256;2023-05-15T04:53:10;10.73;;;8.70;;
434;SDS011;204;48.942;9.256;2023-05-15T04:55:35;8.77;;;8.27;;
434;SDS011;204;48.942;9.256;2023-05-15T04:58:01;8.97;;;8.47;;
434;SDS011;204;48.942;9.256;2023-05-15T05:00:27;8.87;;;7.60;;
434;SDS011;204;48.942;9.256;2023-05-15T05:02:53;8.50;;;8.00;;
434;SDS011;204;48.942;9.256;2023-05-15T05:05:19;12.13;;;8.20;;
434;SDS011;204;48.942;9.256;2023-05-15T05:07:45;7.33;;;6.23;;
434;SDS011;204;48.942;9.256;2023-05-15T05:10:11;7.10;;;6.70;;
434;SDS011;204;48.942;9.256;2023-05-15T05:12:38;7.60;;;7.15;;
434;SDS011;204;48.942;9.256;2023-05-15T05:15:03;7.50;;;6.70;;
434;SDS011;204;48.942;9.256;2023-05-15T05:17:30;7.32;;;6.88;;
434;SDS011;204;48.942;9.256;2023-05-15T05:19:56;8.47;;;6.50;;
434;SDS011;204;48.942;9.256;2023-05-15T05:22:21;8.03;;;6.47;;
434;SDS011;204;48.942;9.256;2023-05-15T05:24:50;6.75;;;6.35;;
434;SDS011;204;48.942;9.256;2023-05-15T05:27:15;8.17;;;6.70;;
434;SDS011;204;48.942;9.256;2023-05-15T05:29:41;7.70;;;6.40;;
434;SDS011;204;48.942;9.256;2023-05-15T05:32:07;7.20;;;6.80;;
434;SDS011;204;48.942;9.256;2023-05-15T05:34:33;6.80;;;6.00;;
434;SDS011;204;48.942;9.256;2023-05-15T05:36:59;10.00;;;6.73;;
434;SDS011;204;48.942;9.256;2023-05-15T05:39:24;19.70;;;7.90;;
434;SDS011;204;48.942;9.256;2023-05-15T05:41:50;12.70;;;7.17;;
434;SDS011;204;48.942;9.256;2023-05-15T05:44:16;7.30;;;6.50;;
434;SDS011;204;48.942;9.256;2023-05-15T05:46:42;7.10;;;6.70;;
434;SDS011;204;48.942;9.256;2023-05-15T05:49:09;7.30;;;6.90;;
434;SDS011;204;48.942;9.256;2023-05-15T05:51:35;6.18;;;5.85;;
434;SDS011;204;48.942;9.256;2023-05-15T05:54:01;7.40;;;6.87;;
434;SDS011;204;48.942;9.256;2023-05-15T05:56:27;6.40;;;6.00;;
434;SDS011;204;48.942;9.256;2023-05-15T05:58:53;11.30;;;7.00;;
434;SDS011;204;48.942;9.256;2023-05-15T06:01:20;8.32;;;6.20;;
434;SDS011;204;48.942;9.256;2023-05-15T06:03:46;7.72;;;7.32;;
434;SDS011;204;48.942;9.256;2023-05-15T06:06:12;7.00;;;6.60;;
434;SDS011;204;48.942;9.256;2023-05-15T06:08:38;10.77;;;6.53;;
434;SDS011;204;48.942;9.256;2023-05-15T06:11:06;6.50;;;6.10;;
434;SDS011;204;48.942;9.256;2023-05-15T06:13:32;7.30;;;6.93;;
434;SDS011;204;48.942;9.256;2023-05-15T06:15:58;7.47;;;7.07;;
434;SDS011;204;48.942;9.256;2023-05-15T06:18:24;7.03;;;6.63;;
434;SDS011;204;48.942;9.256;2023-05-15T06:20:49;7.60;;;7.20;;
434;SDS011;204;48.942;9.256;2023-05-15T06:23:15;7.67;;;7.27;;
434;SDS011;204;48.942;9.256;2023-05-15T06:25:41;8.00;;;7.60;;
434;SDS011;204;48.942;9.256;2023-05-15T06:28:07;7.17;;;6.77;;
434;SDS011;204;48.942;9.256;2023-05-15T06:30:33;6.93;;;6.53;;
434;SDS011;204;48.942;9.256;2023-05-15T06:33:01;7.60;;;7.20;;
434;SDS011;204;48.942;9.256;2023-05-15T06:35:27;6.63;;;6.23;;
434;SDS011;204;48.942;9.256;2023-05-15T06:37:53;7.47;;;6.63;;
434;SDS011;204;48.942;9.256;2023-05-15T06:40:19;6.77;;;6.37;;
434;SDS011;204;48.942;9.256;2023-05-15T06:42:45;6.70;;;6.30;;
434;SDS011;204;48.942;9.256;2023-05-15T06:45:11;7.30;;;6.93;;
434;SDS011;204;48.942;9.256;2023-05-15T06:47:37;6.40;;;6.00;;
434;SDS011;204;48.942;9.256;2023-05-15T06:50:03;6.20;;;5.90;;
434;SDS011;204;48.942;9.256;2023-05-15T06:52:29;8.00;;;6.40;;
434;SDS011;204;48.942;9.256;2023-05-15T06:54:55;8.47;;;5.50;;
434;SDS011;204;48.942;9.256;2023-05-15T06:57:21;6.10;;;5.83;;
434;SDS011;204;48.942;9.256;2023-05-15T06:59:46;6.17;;;5.37;;
434;SDS011;204;48.942;9.256;2023-05-15T07:02:12;6.53;;;6.13;;
434;SDS011;204;48.942;9.256;2023-05-15T07:04:38;6.50;;;6.10;;
434;SDS011;204;48.942;9.256;2023-05-15T07:07:04;6.10;;;5.80;;
434;SDS011;204;48.942;9.256;2023-05-15T07:09:30;5.93;;;5.63;;
434;SDS011;204;48.942;9.256;2023-05-15T07:11:56;6.63;;;6.20;;
434;SDS011;204;48.942;9.256;2023-05-15T07:14:21;7.03;;;6.63;;
434;SDS011;204;48.942;9.256;2023-05-15T07:16:50;7.67;;;7.27;;
434;SDS011;204;48.942;9.256;2023-05-15T07:19:19;7.60;;;7.20;;
434;SDS011;204;48.942;9.256;2023-05-15T07:21:45;8.23;;;7.70;;
434;SDS011;204;48.942;9.256;2023-05-15T07:24:11;6.57;;;6.17;;
434;SDS011;204;48.942;9.256;2023-05-15T07:26:39;6.20;;;5.87;;
434;SDS011;204;48.942;9.256;2023-05-15T07:29:05;6.67;;;6.27;;
434;SDS011;204;48.942;9.256;2023-05-15T07:31:31;6.03;;;5.73;;
434;SDS011;204;48.942;9.256;2023-05-15T07:33:57;6.37;;;6.03;;
434;SDS011;204;48.942;9.256;2023-05-15T07:36:23;8.60;;;6.00;;
434;SDS011;204;48.942;9.256;2023-05-15T07:38:49;5.40;;;5.10;;
434;SDS011;204;48.942;9.256;2023-05-15T07:41:15;5.00;;;4.77;;
434;SDS011;204;48.942;9.256;2023-05-15T07:43:42;5.40;;;5.10;;
434;SDS011;204;48.942;9.256;2023-05-15T07:46:08;4.30;;;4.03;;
434;SDS011;204;48.942;9.256;2023-05-15T07:48:34;5.40;;;5.10;;
434;SDS011;204;48.942;9.256;2023-05-15T07:51:00;4.93;;;4.63;;
434;SDS011;204;48.942;9.256;2023-05-15T07:53:26;5.30;;;5.00;;
434;SDS011;204;48.942;9.256;2023-05-15T07:55:52;5.37;;;5.07;;
434;SDS011;204;48.942;9.256;2023-05-15T07:58:17;4.63;;;4.33;;
434;SDS011;204;48.942;9.256;2023-05-15T08:00:43;6.90;;;4.93;;
434;SDS011;204;48.942;9.256;2023-05-15T08:03:09;5.80;;;4.80;;
434;SDS011;204;48.942;9.256;2023-05-15T08:05:35;6.57;;;4.77;;
434;SDS011;204;48.942;9.256;2023-05-15T08:08:01;5.17;;;4.87;;
434;SDS011;204;48.942;9.256;2023-05-15T08:10:26;5.93;;;4.10;;
434;SDS011;204;48.942;9.256;2023-05-15T08:12:52;7.23;;;5.40;;
434;SDS011;204;48.942;9.256;2023-05-15T08:15:17;5.23;;;4.80;;
434;SDS011;204;48.942;9.256;2023-05-15T08:17:43;4.93;;;4.60;;
434;SDS011;204;48.942;9.256;2023-05-15T08:20:09;4.40;;;4.10;;
434;SDS011;204;48.942;9.256;2023-05-15T08:22:35;3.97;;;3.80;;
434;SDS011;204;48.942;9.256;2023-05-15T08:25:01;5.57;;;5.27;;
434;SDS011;204;48.942;9.256;2023-05-15T08:27:31;4.50;;;4.00;;
434;SDS011;204;48.942;9.256;2023-05-15T08:29:56;4.23;;;3.93;;
434;SDS011;204;48.942;9.256;2023-05-15T08:32:22;3.97;;;3.77;;
434;SDS011;204;48.942;9.256;2023-05-15T08:34:48;4.37;;;4.07;;
434;SDS011;204;48.942;9.256;2023-05-15T08:37:13;4.60;;;4.30;;
434;SDS011;204;48.942;9.256;2023-05-15T08:39:39;4.50;;;4.20;;
434;SDS011;204;48.942;9.256;2023-05-15T08:42:23;5.17;;;4.70;;
434;SDS011;204;48.942;9.256;2023-05-15T08:44:52;4.33;;;4.03;;
434;SDS011;204;48.942;9.256;2023-05-15T08:47:19;3.77;;;3.57;;
434;SDS011;204;48.942;9.256;2023-05-15T08:52:30;3.67;;;3.47;;
434;SDS011;204;48.942;9.256;2023-05-15T08:54:59;3.73;;;3.40;;
434;SDS011;204;48.942;9.256;2023-05-15T08:57:26;3.70;;;3.50;;
434;SDS011;204;48.942;9.256;2023-05-15T08:59:55;5.70;;;3.63;;
434;SDS011;204;48.942;9.256;2023-05-15T09:02:23;3.30;;;3.10;;
434;SDS011;204;48.942;9.256;2023-05-15T09:04:52;3.87;;;3.67;;
434;SDS011;204;48.942;9.256;2023-05-15T09:07:18;3.30;;;3.10;;
434;SDS011;204;48.942;9.256;2023-05-15T09:09:44;3.70;;;3.50;;
434;SDS011;204;48.942;9.256;2023-05-15T09:12:12;3.70;;;3.50;;
434;SDS011;204;48.942;9.256;2023-05-15T09:14:39;3.87;;;3.30;;
434;SDS011;204;48.942;9.256;2023-05-15T09:17:05;3.87;;;3.67;;
434;SDS011;204;48.942;9.256;2023-05-15T09:19:32;3.60;;;3.40;;
434;SDS011;204;48.942;9.256;2023-05-15T09:22:19;3.80;;;3.60;;
434;SDS011;204;48.942;9.256;2023-05-15T09:24:50;4.23;;;3.67;;
434;SDS011;204;48.942;9.256;2023-05-15T09:27:17;3.80;;;3.60;;
434;SDS011;204;48.942;9.256;2023-05-15T09:29:43;4.33;;;3.40;;
434;SDS011;204;48.942;9.256;2023-05-15T09:32:10;4.77;;;3.60;;
434;SDS011;204;48.942;9.256;2023-05-15T09:34:37;5.70;;;3.70;;
434;SDS011;204;48.942;9.256;2023-05-15T09:37:05;5.63;;;3.70;;
434;SDS011;204;48.942;9.256;2023-05-15T09:39:33;3.97;;;3.80;;
434;SDS011;204;48.942;9.256;2023-05-15T09:42:05;4.40;;;4.10;;
434;SDS011;204;48.942;9.256;2023-05-15T09:44:32;4.33;;;4.07;;
434;SDS011;204;48.942;9.256;2023-05-15T09:46:58;3.70;;;3.40;;
434;SDS011;204;48.942;9.256;2023-05-15T09:49:26;3.70;;;3.50;;
434;SDS011;204;48.942;9.256;2023-05-15T09:51:53;4.43;;;3.90;;
434;SDS011;204;48.942;9.256;2023-05-15T09:54:19;5.00;;;3.97;;
434;SDS011;204;48.942;9.256;2023-05-15T09:56:47;5.40;;;3.27;;
434;SDS011;204;48.942;9.256;2023-05-15T09:59:14;4.30;;;4.00;;
434;SDS011;204;48.942;9.256;2023-05-15T10:01:43;3.53;;;3.33;;
434;SDS011;204;48.942;9.256;2023-05-15T10:04:10;4.30;;;4.00;;
434;SDS011;204;48.942;9.256;2023-05-15T10:09:54;4.10;;;3.73;;
434;SDS011;204;48.942;9.256;2023-05-15T10:12:19;3.60;;;3.40;;
434;SDS011;204;48.942;9.256;2023-05-15T10:14:47;4.30;;;4.00;;
434;SDS011;204;48.942;9.256;2023-05-15T10:17:13;4.57;;;4.03;;
434;SDS011;204;48.942;9.256;2023-05-15T10:19:39;3.70;;;3.50;;
434;SDS011;204;48.942;9.256;2023-05-15T10:22:06;3.67;;;3.50;;
434;SDS011;204;48.942;9.256;2023-05-15T10:24:34;4.30;;;4.00;;
434;SDS011;204;48.942;9.256;2023-05-15T10:27:02;4.17;;;3.93;;
434;SDS011;204;48.942;9.256;2023-05-15T10:29:28;3.93;;;3.73;;
434;SDS011;204;48.942;9.256;2023-05-15T10:31:55;3.97;;;3.60;;
434;SDS011;204;48.942;9.256;2023-05-15T10:34:23;3.70;;;3.50;;
434;SDS011;204;48.942;9.256;2023-05-15T10:36:50;3.80;;;3.60;;
434;SDS011;204;48.942;9.256;2023-05-15T10:39:16;3.33;;;3.13;;
434;SDS011;204;48.942;9.256;2023-05-15T10:41:43;3.40;;;3.20;;
434;SDS011;204;48.942;9.256;2023-05-15T10:44:09;3.33;;;3.13;;
434;SDS011;204;48.942;9.256;2023-05-15T10:46:35;3.77;;;3.57;;
434;SDS011;204;48.942;9.256;2023-05-15T10:49:01;6.67;;;3.30;;
434;SDS011;204;48.942;9.256;2023-05-15T10:51:28;4.30;;;4.00;;
434;SDS011;204;48.942;9.256;2023-05-15T10:53:56;3.57;;;3.37;;
434;SDS011;204;48.942;9.256;2023-05-15T10:56:49;4.97;;;3.23;;
434;SDS011;204;48.942;9.256;2023-05-15T10:59:40;4.33;;;3.97;;
434;SDS011;204;48.942;9.256;2023-05-15T11:02:36;4.23;;;3.97;;
434;SDS011;204;48.942;9.256;2023-05-15T11:05:28;3.37;;;3.17;;
434;SDS011;204;48.942;9.256;2023-05-15T11:08:55;4.70;;;3.10;;
434;SDS011;204;48.942;9.256;2023-05-15T11:12:22;3.97;;;3.77;;
434;SDS011;204;48.942;9.256;2023-05-15T11:17:21;5.67;;;3.33;;
434;SDS011;204;48.942;9.256;2023-05-15T11:30:19;5.10;;;3.07;;
434;SDS011;204;48.942;9.256;2023-05-15T11:35:12;3.37;;;3.17;;
434;SDS011;204;48.942;9.256;2023-05-15T11:43:01;3.67;;;3.47;;
434;SDS011;204;48.942;9.256;2023-05-15T11:45:38;4.20;;;3.27;;
434;SDS011;204;48.942;9.256;2023-05-15T11:48:05;3.70;;;3.40;;
434;SDS011;204;48.942;9.256;2023-05-15T11:50:32;6.43;;;6.00;;
434;SDS011;204;48.942;9.256;2023-05-15T11:53:06;9.80;;;9.30;;
434;SDS011;204;48.942;9.256;2023-05-15T11:55:34;3.83;;;3.63;;
434;SDS011;204;48.942;9.256;2023-05-15T11:58:01;4.17;;;3.93;;
434;SDS011;204;48.942;9.256;2023-05-15T12:00:28;3.27;;;3.07;;
434;SDS011;204;48.942;9.256;2023-05-15T12:02:54;4.00;;;3.80;;
434;SDS011;204;48.942;9.256;2023-05-15T12:05:20;3.00;;;2.80;;
434;SDS011;204;48.942;9.256;2023-05-15T12:07:46;3.30;;;3.10;;
434;SDS011;204;48.942;9.256;2023-05-15T12:10:12;3.17;;;2.97;;
434;SDS011;204;48.942;9.256;2023-05-15T12:12:39;3.30;;;3.10;;
434;SDS011;204;48.942;9.256;2023-05-15T12:15:12;3.97;;;3.77;;
434;SDS011;204;48.942;9.256;2023-05-15T12:17:39;3.20;;;3.00;;
434;SDS011;204;48.942;9.256;2023-05-15T12:20:15;2.57;;;2.37;;
434;SDS011;204;48.942;9.256;2023-05-15T12:22:42;2.33;;;2.10;;
434;SDS011;204;48.942;9.256;2023-05-15T12:25:09;2.63;;;2.43;;
434;SDS011;204;48.942;9.256;2023-05-15T12:27:36;2.40;;;2.20;;
434;SDS011;204;48.942;9.256;2023-05-15T12:30:03;2.33;;;2.03;;
434;SDS011;204;48.942;9.256;2023-05-15T12:32:31;2.53;;;2.33;;
434;SDS011;204;48.942;9.256;2023-05-15T12:34:58;3.63;;;2.80;;
434;SDS011;204;48.942;9.256;2023-05-15T12:37:25;2.70;;;2.50;;
434;SDS011;204;48.942;9.256;2023-05-15T12:39:54;3.20;;;3.00;;
434;SDS011;204;48.942;9.256;2023-05-15T12:42:23;3.27;;;3.07;;
434;SDS011;204;48.942;9.256;2023-05-15T12:44:50;3.30;;;3.10;;
434;SDS011;204;48.942;9.256;2023-05-15T12:47:35;2.90;;;2.67;;
434;SDS011;204;48.942;9.256;2023-05-15T12:50:00;2.63;;;2.40;;
434;SDS011;204;48.942;9.256;2023-05-15T12:52:30;2.97;;;2.77;;
434;SDS011;204;48.942;9.256;2023-05-15T12:54:58;3.30;;;3.10;;
434;SDS011;204;48.942;9.256;2023-05-15T12:57:24;4.47;;;4.20;;
434;SDS011;204;48.942;9.256;2023-05-15T12:59:51;3.27;;;3.07;;
434;SDS011;204;48.942;9.256;2023-05-15T13:02:17;4.73;;;2.70;;
434;SDS011;204;48.942;9.256;2023-05-15T13:04:44;3.37;;;3.20;;
434;SDS011;204;48.942;9.256;2023-05-15T13:07:13;3.17;;;2.97;;
434;SDS011;204;48.942;9.256;2023-05-15T13:09:40;3.73;;;3.53;;
434;SDS011;204;48.942;9.256;2023-05-15T13:12:06;3.20;;;3.00;;
434;SDS011;204;48.942;9.256;2023-05-15T13:14:32;4.00;;;2.90;;
434;SDS011;204;48.942;9.256;2023-05-15T13:16:59;3.47;;;3.27;;
434;SDS011;204;48.942;9.256;2023-05-15T13:19:26;4.40;;;4.00;;
434;SDS011;204;48.942;9.256;2023-05-15T13:21:52;5.10;;;4.00;;
434;SDS011;204;48.942;9.256;2023-05-15T13:24:17;4.30;;;4.00;;
434;SDS011;204;48.942;9.256;2023-05-15T13:26:43;3.90;;;3.70;;
434;SDS011;204;48.942;9.256;2023-05-15T13:29:09;3.83;;;3.63;;
434;SDS011;204;48.942;9.256;2023-05-15T13:31:34;4.07;;;3.87;;
434;SDS011;204;48.942;9.256;2023-05-15T13:34:00;3.97;;;3.77;;
434;SDS011;204;48.942;9.256;2023-05-15T13:36:25;3.60;;;3.23;;
434;SDS011;204;48.942;9.256;2023-05-15T13:38:51;3.00;;;2.80;;
434;SDS011;204;48.942;9.256;2023-05-15T13:41:16;3.50;;;3.30;;
434;SDS011;204;48.942;9.256;2023-05-15T13:43:42;4.37;;;3.00;;
434;SDS011;204;48.942;9.256;2023-05-15T13:46:08;3.53;;;3.20;;
434;SDS011;204;48.942;9.256;2023-05-15T13:48:33;6.83;;;3.20;;
434;SDS011;204;48.942;9.256;2023-05-15T13:50:59;2.93;;;2.73;;
434;SDS011;204;48.942;9.256;2023-05-15T13:53:24;2.77;;;2.67;;
434;SDS011;204;48.942;9.256;2023-05-15T13:55:50;2.77;;;2.57;;
434;SDS011;204;48.942;9.256;2023-05-15T13:58:16;2.57;;;2.37;;
434;SDS011;204;48.942;9.256;2023-05-15T14:00:42;3.60;;;2.70;;
434;SDS011;204;48.942;9.256;2023-05-15T14:03:08;3.33;;;2.20;;
434;SDS011;204;48.942;9.256;2023-05-15T14:05:33;2.50;;;2.30;;
434;SDS011;204;48.942;9.256;2023-05-15T14:07:59;2.63;;;2.43;;
434;SDS011;204;48.942;9.256;2023-05-15T14:10:25;2.33;;;2.00;;
434;SDS011;204;48.942;9.256;2023-05-15T14:12:51;2.90;;;2.70;;
434;SDS011;204;48.942;9.256;2023-05-15T14:15:16;3.07;;;2.43;;
434;SDS011;204;48.942;9.256;2023-05-15T14:17:42;3.00;;;2.80;;
434;SDS011;204;48.942;9.256;2023-05-15T14:20:08;3.80;;;3.60;;
434;SDS011;204;48.942;9.256;2023-05-15T14:22:35;4.43;;;2.90;;
434;SDS011;204;48.942;9.256;2023-05-15T14:25:01;5.30;;;3.00;;
434;SDS011;204;48.942;9.256;2023-05-15T14:27:28;4.60;;;3.27;;
434;SDS011;204;48.942;9.256;2023-05-15T14:29:54;4.20;;;3.53;;
434;SDS011;204;48.942;9.256;2023-05-15T14:32:20;3.80;;;3.60;;
434;SDS011;204;48.942;9.256;2023-05-15T14:34:47;3.53;;;3.33;;
434;SDS011;204;48.942;9.256;2023-05-15T14:37:13;4.13;;;3.90;;
434;SDS011;204;48.942;9.256;2023-05-15T14:39:39;4.37;;;4.10;;
434;SDS011;204;48.942;9.256;2023-05-15T14:42:04;7.27;;;4.60;;
434;SDS011;204;48.942;9.256;2023-05-15T14:44:30;8.70;;;4.30;;
434;SDS011;204;48.942;9.256;2023-05-15T14:47:11;4.83;;;3.50;;
434;SDS011;204;48.942;9.256;2023-05-15T14:49:37;4.87;;;4.57;;
434;SDS011;204;48.942;9.256;2023-05-15T14:52:04;5.17;;;4.83;;
434;SDS011;204;48.942;9.256;2023-05-15T14:54:31;43.00;;;10.73;;
434;SDS011;204;48.942;9.256;2023-05-15T14:56:57;15.57;;;9.10;;
434;SDS011;204;48.942;9.256;2023-05-15T14:59:26;11.00;;;9.30;;
434;SDS011;204;48.942;9.256;2023-05-15T15:01:52;10.83;;;10.23;;
434;SDS011;204;48.942;9.256;2023-05-15T15:04:18;18.83;;;16.20;;
434;SDS011;204;48.942;9.256;2023-05-15T15:06:43;14.37;;;13.67;;
434;SDS011;204;48.942;9.256;2023-05-15T15:09:11;13.63;;;12.93;;
434;SDS011;204;48.942;9.256;2023-05-15T15:11:37;15.30;;;14.50;;
434;SDS011;204;48.942;9.256;2023-05-15T15:14:02;17.07;;;15.50;;
434;SDS011;204;48.942;9.256;2023-05-15T15:16:28;17.73;;;16.83;;
434;SDS011;204;48.942;9.256;2023-05-15T15:18:53;18.87;;;17.93;;
434;SDS011;204;48.942;9.256;2023-05-15T15:21:19;19.10;;;18.10;;
434;SDS011;204;48.942;9.256;2023-05-15T15:23:45;17.60;;;16.70;;
434;SDS011;204;48.942;9.256;2023-05-15T15:26:12;19.70;;;18.70;;
434;SDS011;204;48.942;9.256;2023-05-15T15:28:37;18.50;;;17.60;;
434;SDS011;204;48.942;9.256;2023-05-15T15:31:03;15.90;;;15.10;;
434;SDS011;204;48.942;9.256;2023-05-15T15:33:29;16.50;;;15.70;;
434;SDS011;204;48.942;9.256;2023-05-15T15:35:55;16.40;;;15.60;;
434;SDS011;204;48.942;9.256;2023-05-15T15:38:20;16.77;;;15.90;;
434;SDS011;204;48.942;9.256;2023-05-15T15:40:46;16.17;;;15.37;;
434;SDS011;204;48.942;9.256;2023-05-15T15:43:11;16.87;;;16.00;;
434;SDS011;204;48.942;9.256;2023-05-15T15:45:37;15.57;;;14.77;;
434;SDS011;204;48.942;9.256;2023-05-15T15:48:02;15.23;;;14.43;;
434;SDS011;204;48.942;9.256;2023-05-15T15:50:28;16.17;;;15.33;;
434;SDS011;204;48.942;9.256;2023-05-15T15:52:54;17.87;;;16.97;;
434;SDS011;204;48.942;9.256;2023-05-15T15:55:20;16.77;;;15.93;;
434;SDS011;204;48.942;9.256;2023-05-15T15:57:45;16.67;;;15.87;;
434;SDS011;204;48.942;9.256;2023-05-15T16:00:11;17.47;;;16.53;;
434;SDS011;204;48.942;9.256;2023-05-15T16:02:38;17.70;;;16.80;;
434;SDS011;204;48.942;9.256;2023-05-15T16:05:04;18.10;;;17.20;;
434;SDS011;204;48.942;9.256;2023-05-15T16:07:31;16.90;;;16.00;;
434;SDS011;204;48.942;9.256;2023-05-15T16:09:57;14.93;;;14.13;;
434;SDS011;204;48.942;9.256;2023-05-15T16:12:26;15.60;;;14.70;;
434;SDS011;204;48.942;9.256;2023-05-15T16:14:54;13.60;;;12.90;;
434;SDS011;204;48.942;9.256;2023-05-15T16:17:20;13.37;;;12.67;;
434;SDS011;204;48.942;9.256;2023-05-15T16:19:46;13.23;;;12.53;;
434;SDS011;204;48.942;9.256;2023-05-15T16:22:11;13.40;;;12.70;;